createdAt,value
2018-08-19T00:00:01.600Z,14.9
2018-08-19T00:05:02.055Z,14.9
2018-08-19T00:10:01.840Z,14.9
2018-08-19T00:15:01.594Z,14.9
2018-08-19T00:20:01.907Z,14.9
2018-08-19T00:25:01.436Z,14.9
2018-08-19T00:30:01.841Z,14.9
2018-08-19T00:35:01.673Z,14.9
2018-08-19T00:40:02.004Z,14.9
2018-08-19T00:45:01.727Z,14.9
2018-08-19T00:50:01.830Z,14.9
2018-08-19T00:55:01.375Z,14.9
2018-08-19T01:00:01.554Z,14.9
2018-08-19T01:05:01.809Z,14.9
2018-08-19T01:10:01.835Z,14.9
2018-08-19T01:15:02.056Z,14.9
2018-08-19T01:20:01.180Z,14.9
2018-08-19T01:25:02.094Z,14.9
2018-08-19T01:30:01.870Z,14.9
2018-08-19T01:35:01.655Z,14.9
2018-08-19T01:40:01.560Z,14.9
2018-08-19T01:45:02.136Z,14.9
2018-08-19T01:50:01.700Z,14.9
2018-08-19T01:55:02.252Z,14.9
2018-08-19T02:00:01.948Z,14.9
2018-08-19T02:05:01.338Z,14.9
2018-08-19T02:10:01.417Z,14.9
2018-08-19T02:15:02.165Z,14.9
2018-08-19T02:20:01.280Z,14.9
2018-08-19T02:25:01.650Z,14.9
2018-08-19T02:30:01.771Z,14.9
2018-08-19T02:35:01.332Z,14.9
2018-08-19T02:40:02.107Z,14.9
2018-08-19T02:45:01.677Z,14.9
2018-08-19T02:50:01.712Z,14.9
2018-08-19T02:55:01.898Z,14.9
2018-08-19T03:00:01.329Z,14.9
2018-08-19T03:05:01.846Z,14.9
2018-08-19T03:10:01.834Z,14.9
2018-08-19T03:15:01.491Z,14.9
2018-08-19T03:20:02.143Z,14.9
2018-08-19T03:25:02.133Z,14.9
2018-08-19T03:30:01.194Z,14.9
2018-08-19T03:35:01.554Z,14.9
2018-08-19T03:40:01.571Z,14.9
2018-08-19T03:45:01.649Z,14.9
2018-08-19T03:50:01.892Z,14.9
2018-08-19T03:55:01.961Z,14.9
2018-08-19T04:00:01.262Z,14.9
2018-08-19T04:05:01.690Z,14.9
2018-08-19T04:10:01.676Z,14.9
2018-08-19T04:15:01.338Z,14.9
2018-08-19T04:20:01.648Z,14.9
2018-08-19T04:25:02.191Z,14.9
2018-08-19T04:30:01.790Z,14.9
2018-08-19T04:35:02.027Z,14.9
2018-08-19T04:40:01.603Z,14.9
2018-08-19T04:45:02.501Z,14.9
2018-08-19T04:50:02.041Z,14.9
2018-08-19T04:55:01.938Z,14.9
2018-08-19T05:00:01.242Z,14.9
2018-08-19T05:05:02.033Z,14.9
2018-08-19T05:10:01.563Z,14.9
2018-08-19T05:15:01.304Z,14.9
2018-08-19T05:20:01.821Z,14.9
2018-08-19T05:25:01.818Z,14.9
2018-08-19T05:30:01.820Z,14.9
2018-08-19T05:35:02.267Z,14.9
2018-08-19T05:40:01.901Z,14.9
2018-08-19T05:45:01.416Z,14.9
2018-08-19T05:50:01.686Z,14.9
2018-08-19T05:55:01.869Z,14.9
2018-08-19T06:00:02.119Z,14.9
2018-08-19T06:05:01.770Z,14.9
2018-08-19T06:10:02.076Z,14.9
2018-08-19T06:15:01.119Z,14.9
2018-08-19T06:20:01.565Z,14.9
2018-08-19T06:25:01.560Z,14.9
2018-08-19T06:30:01.859Z,14.9
2018-08-19T06:35:02.230Z,14.9
2018-08-19T06:40:01.557Z,14.9
2018-08-19T06:45:02.160Z,14.9
2018-08-19T06:50:01.240Z,14.9
2018-08-19T06:55:01.218Z,14.9
2018-08-19T07:00:01.649Z,14.9
2018-08-19T07:05:01.522Z,14.9
2018-08-19T07:10:01.556Z,14.9
2018-08-19T07:15:01.993Z,14.9
2018-08-19T07:20:02.057Z,14.9
2018-08-19T07:25:02.011Z,14.9
2018-08-19T07:30:01.235Z,14.9
2018-08-19T07:35:01.334Z,14.9
2018-08-19T07:40:01.993Z,14.9
2018-08-19T07:45:01.214Z,14.9
2018-08-19T07:50:02.278Z,14.9
2018-08-19T07:55:01.884Z,14.9
2018-08-19T08:00:01.390Z,14.9
2018-08-19T08:05:02.013Z,14.9
2018-08-19T08:10:02.101Z,14.9
2018-08-19T08:15:01.620Z,14.9
2018-08-19T08:20:01.926Z,14.9
2018-08-19T08:25:02.034Z,14.9
2018-08-19T08:30:01.518Z,14.9
2018-08-19T08:35:01.630Z,14.9
2018-08-19T08:40:01.488Z,14.9
2018-08-19T08:45:02.096Z,14.9
2018-08-19T08:50:01.258Z,14.9
2018-08-19T08:55:02.075Z,14.9
2018-08-19T09:00:01.590Z,14.9
2018-08-19T09:05:02.489Z,14.9
2018-08-19T09:10:01.978Z,14.9
2018-08-19T09:15:02.094Z,14.9
2018-08-19T09:20:01.346Z,14.9
2018-08-19T09:25:01.608Z,14.9
2018-08-19T09:30:01.964Z,14.9
2018-08-19T09:35:01.262Z,14.9
2018-08-19T09:40:02.132Z,14.9
2018-08-19T09:45:02.095Z,14.9
2018-08-19T09:50:01.459Z,14.9
2018-08-19T09:55:01.614Z,14.9
2018-08-19T10:00:01.430Z,14.9
2018-08-19T10:05:01.853Z,14.9
2018-08-19T10:10:01.592Z,14.9
2018-08-19T10:15:01.598Z,14.9
2018-08-19T10:20:01.378Z,14.9
2018-08-19T10:25:01.663Z,14.9
2018-08-19T10:30:01.773Z,14.9
2018-08-19T10:35:01.604Z,14.9
2018-08-19T10:40:02.024Z,14.9
2018-08-19T10:45:02.253Z,14.9
2018-08-19T10:50:02.307Z,14.9
2018-08-19T10:55:01.904Z,14.9
2018-08-19T11:00:01.606Z,14.9
2018-08-19T11:05:01.894Z,14.9
2018-08-19T11:10:01.794Z,14.9
2018-08-19T11:15:02.131Z,14.9
2018-08-19T11:20:01.916Z,14.9
2018-08-19T11:25:02.020Z,14.9
2018-08-19T11:30:01.460Z,14.9
2018-08-19T11:35:02.016Z,14.9
2018-08-19T11:40:02.341Z,14.9
2018-08-19T11:45:01.325Z,14.9
2018-08-19T11:50:01.983Z,14.9
2018-08-19T11:55:01.178Z,14.9
2018-08-19T12:00:01.841Z,14.9
2018-08-19T12:05:01.658Z,14.9
2018-08-19T12:10:01.472Z,14.9
2018-08-19T12:15:01.821Z,14.9
2018-08-19T12:20:01.470Z,14.9
2018-08-19T12:25:01.568Z,14.9
2018-08-19T12:30:01.723Z,14.9
2018-08-19T12:35:01.543Z,14.9
2018-08-19T12:40:01.877Z,14.9
2018-08-19T12:45:02.277Z,14.9
2018-08-19T12:50:01.820Z,14.9
2018-08-19T12:55:01.299Z,14.9
2018-08-19T13:00:01.685Z,14.9
2018-08-19T13:05:01.710Z,14.9
2018-08-19T13:10:01.395Z,14.9
2018-08-19T13:15:01.657Z,14.9
2018-08-19T13:20:01.662Z,14.9
2018-08-19T13:25:01.819Z,14.9
2018-08-19T13:30:01.356Z,14.9
2018-08-19T13:35:01.904Z,14.9
2018-08-19T13:40:01.532Z,14.9
2018-08-19T13:45:01.459Z,14.9
2018-08-19T13:50:02.301Z,14.9
2018-08-19T13:55:02.094Z,14.9
2018-08-19T14:00:01.724Z,14.9
2018-08-19T14:05:01.496Z,14.9
2018-08-19T14:10:01.505Z,14.9
2018-08-19T14:15:02.088Z,14.9
2018-08-19T14:20:01.846Z,14.9
2018-08-19T14:25:01.767Z,14.9
2018-08-19T14:30:02.272Z,14.9
2018-08-19T14:35:01.922Z,14.9
2018-08-19T14:40:01.865Z,14.9
2018-08-19T14:45:01.709Z,14.9
2018-08-19T14:50:01.419Z,14.9
2018-08-19T14:55:01.397Z,14.9
2018-08-19T15:00:01.778Z,14.9
2018-08-19T15:05:01.936Z,14.9
2018-08-19T15:10:02.007Z,14.9
2018-08-19T15:15:01.301Z,14.9
2018-08-19T15:20:02.033Z,14.9
2018-08-19T15:25:01.951Z,14.9
2018-08-19T15:30:01.219Z,14.9
2018-08-19T15:35:01.422Z,14.9
2018-08-19T15:40:01.526Z,14.9
2018-08-19T15:45:01.414Z,14.9
2018-08-19T15:50:02.115Z,14.9
2018-08-19T15:55:01.303Z,14.9
2018-08-19T16:00:02.119Z,14.9
2018-08-19T16:05:01.512Z,14.9
2018-08-19T16:10:01.424Z,14.9
2018-08-19T16:15:01.820Z,14.9
2018-08-19T16:20:01.843Z,14.9
2018-08-19T16:25:01.172Z,14.9
2018-08-19T16:30:01.501Z,14.9
2018-08-19T16:35:02.208Z,14.9
2018-08-19T16:40:01.150Z,14.9
2018-08-19T16:45:01.531Z,14.9
2018-08-19T16:50:01.514Z,14.9
2018-08-19T16:55:02.038Z,14.9
2018-08-19T17:00:01.221Z,14.9
2018-08-19T17:05:01.175Z,14.9
2018-08-19T17:10:01.537Z,14.9
2018-08-19T17:15:01.915Z,14.9
2018-08-19T17:20:01.663Z,14.9
2018-08-19T17:25:02.087Z,14.9
2018-08-19T17:30:01.664Z,14.9
2018-08-19T17:35:01.615Z,14.9
2018-08-19T17:40:01.431Z,14.9
2018-08-19T17:45:01.701Z,14.9
2018-08-19T17:50:01.387Z,14.9
2018-08-19T17:55:01.568Z,14.9
2018-08-19T18:00:01.672Z,14.9
2018-08-19T18:05:02.168Z,14.9
2018-08-19T18:10:01.159Z,14.9
2018-08-19T18:15:01.530Z,14.9
2018-08-19T18:20:01.671Z,14.9
2018-08-19T18:25:02.139Z,14.9
2018-08-19T18:30:01.822Z,14.9
2018-08-19T18:35:01.578Z,14.9
2018-08-19T18:40:01.555Z,23.4
2018-08-19T18:45:01.684Z,23.1
2018-08-19T18:50:02.256Z,22.9
2018-08-19T18:55:01.667Z,22.6
2018-08-19T19:00:01.279Z,22.5
2018-08-19T19:05:01.937Z,22.3
2018-08-19T19:10:01.576Z,22.2
2018-08-19T19:15:01.656Z,22.1
2018-08-19T19:20:01.238Z,22
2018-08-19T19:25:02.318Z,21.9
2018-08-19T19:30:01.651Z,21.9
2018-08-19T19:35:01.830Z,21.8
2018-08-19T19:40:01.763Z,21.8
2018-08-19T19:45:02.276Z,21.7
2018-08-19T19:50:02.285Z,21.7
2018-08-19T19:55:01.427Z,21.6
2018-08-19T20:00:01.850Z,21.5
2018-08-19T20:05:01.727Z,21.4
2018-08-19T20:10:01.568Z,21.4
2018-08-19T20:15:01.960Z,21.3
2018-08-19T20:20:01.439Z,21.2
2018-08-19T20:25:01.199Z,21.1
2018-08-19T20:30:02.217Z,21
2018-08-19T20:35:01.282Z,20.9
2018-08-19T20:40:02.025Z,20.8
2018-08-19T20:45:01.284Z,20.8
2018-08-19T20:50:01.334Z,20.7
2018-08-19T20:55:02.144Z,20.7
2018-08-19T21:00:01.981Z,20.6
2018-08-19T21:05:01.241Z,20.7
2018-08-19T21:10:01.600Z,20.7
2018-08-19T21:15:01.919Z,20.7
2018-08-19T21:20:01.522Z,20.6
2018-08-19T21:25:01.980Z,20.6
2018-08-19T21:30:02.168Z,20.5
2018-08-19T21:35:01.714Z,20.5
2018-08-19T21:40:02.187Z,20.5
2018-08-19T21:45:01.240Z,20.6
2018-08-19T21:50:01.470Z,20.6
2018-08-19T21:55:01.947Z,20.6
2018-08-19T22:00:02.082Z,20.6
2018-08-19T22:05:01.629Z,20.6
2018-08-19T22:10:02.418Z,20.6
2018-08-19T22:15:01.917Z,20.6
2018-08-19T22:20:01.561Z,20.6
2018-08-19T22:25:01.926Z,20.6
2018-08-19T22:30:02.093Z,20.6
2018-08-19T22:35:02.094Z,20.6
2018-08-19T22:40:01.904Z,20.6
2018-08-19T22:45:02.481Z,20.6
2018-08-19T22:55:01.898Z,20.6
2018-08-19T23:00:01.506Z,20.6
2018-08-19T23:05:01.846Z,20.6
2018-08-19T23:10:01.959Z,20.6
2018-08-19T23:15:02.112Z,20.6
2018-08-19T23:20:01.385Z,20.6
2018-08-19T23:25:02.012Z,20.6
2018-08-19T23:30:02.073Z,20.5
2018-08-19T23:35:01.556Z,20.5
2018-08-19T23:40:02.206Z,20.5
2018-08-19T23:45:01.820Z,20.4
2018-08-19T23:50:01.246Z,20.4
2018-08-19T23:55:02.001Z,20.4
